createdAt,value
2023-04-23T00:01:20.659Z,97089.97
2023-04-23T00:03:51.349Z,97099.41
2023-04-23T00:06:22.561Z,97105.13
2023-04-23T00:08:54.479Z,97075.78
2023-04-23T00:11:23.088Z,97091.47
2023-04-23T00:13:51.772Z,97089.88
2023-04-23T00:16:21.563Z,97085.88
2023-04-23T00:18:51.387Z,97090.09
2023-04-23T00:21:19.836Z,97093.09
2023-04-23T00:23:48.250Z,97086.72
2023-04-23T00:26:18.649Z,97087.91
2023-04-23T00:28:47.022Z,97083.22
2023-04-23T00:31:15.670Z,97087.13
2023-04-23T00:33:44.219Z,97068.94
2023-04-23T00:36:14.153Z,97084.25
2023-04-23T00:38:42.639Z,97089.63
2023-04-23T00:41:11.216Z,97087.03
2023-04-23T00:43:39.625Z,97077.97
2023-04-23T00:46:08.535Z,97059.13
2023-04-23T00:48:37.533Z,97062.13
2023-04-23T00:51:07.381Z,97071.19
2023-04-23T00:53:37.193Z,97040.72
2023-04-23T00:56:07.307Z,97090.72
2023-04-23T00:58:36.259Z,97086.50
2023-04-23T01:01:05.145Z,97041.44
2023-04-23T01:03:36.875Z,97042.72
2023-04-23T01:06:05.741Z,97091.38
2023-04-23T01:08:35.849Z,97057.28
2023-04-23T01:11:06.689Z,97078.03
2023-04-23T01:13:35.836Z,97084.19
2023-04-23T01:16:04.314Z,97091.53
2023-04-23T01:18:32.681Z,97080.09
2023-04-23T01:21:01.947Z,97036.56
2023-04-23T01:23:32.917Z,97086.22
2023-04-23T01:26:01.462Z,97057.38
2023-04-23T01:28:30.949Z,97069.41
2023-04-23T01:31:00.732Z,97091.88
2023-04-23T01:33:29.829Z,97015.47
2023-04-23T01:35:59.018Z,97091.31
2023-04-23T01:38:33.182Z,97080.13
2023-04-23T01:41:01.344Z,97026.78
2023-04-23T01:43:29.948Z,97064.59
2023-04-23T01:45:59.561Z,97082.72
2023-04-23T01:48:28.039Z,97078.91
2023-04-23T01:50:56.487Z,97076.28
2023-04-23T01:53:24.585Z,97084.66
2023-04-23T01:55:55.276Z,97076.00
2023-04-23T01:58:23.920Z,97080.50
2023-04-23T02:00:52.231Z,97077.88
2023-04-23T02:03:20.590Z,97074.19
2023-04-23T02:05:49.816Z,97074.66
2023-04-23T02:08:17.966Z,97079.34
2023-04-23T02:10:46.191Z,97064.09
2023-04-23T02:13:16.019Z,97081.31
2023-04-23T02:15:44.483Z,97060.00
2023-04-23T02:18:12.851Z,97073.50
2023-04-23T02:20:41.651Z,97044.50
2023-04-23T02:23:10.268Z,97079.41
2023-04-23T02:25:39.538Z,97084.22
2023-04-23T02:28:08.473Z,97079.06
2023-04-23T02:30:38.207Z,97086.59
2023-04-23T02:33:06.864Z,97034.22
2023-04-23T02:35:35.041Z,97084.19
2023-04-23T02:38:03.272Z,97086.75
2023-04-23T02:40:31.588Z,97080.66
2023-04-23T02:42:59.770Z,97071.25
2023-04-23T02:45:27.969Z,97083.97
2023-04-23T02:47:58.088Z,97082.38
2023-04-23T02:50:26.287Z,97083.22
2023-04-23T02:52:54.448Z,97085.28
2023-04-23T02:55:25.316Z,97083.81
2023-04-23T02:57:53.549Z,97088.59
2023-04-23T03:00:21.775Z,97084.41
2023-04-23T03:02:50.070Z,97081.91
2023-04-23T03:05:19.803Z,97063.81
2023-04-23T03:07:47.993Z,97076.00
2023-04-23T03:10:16.144Z,97075.25
2023-04-23T03:12:44.308Z,97073.44
2023-04-23T03:15:12.916Z,97073.13
2023-04-23T03:17:41.106Z,97077.19
2023-04-23T03:20:11.722Z,97076.44
2023-04-23T03:22:41.425Z,97075.53
2023-04-23T03:25:10.337Z,97050.09
2023-04-23T03:27:40.568Z,97076.59
2023-04-23T03:30:10.184Z,97065.56
2023-04-23T03:32:38.472Z,97062.25
2023-04-23T03:35:07.457Z,97073.53
2023-04-23T03:37:35.626Z,97069.34
2023-04-23T03:40:07.875Z,97071.94
2023-04-23T03:42:36.233Z,97039.41
2023-04-23T03:45:04.818Z,97049.38
2023-04-23T03:47:33.229Z,97064.66
2023-04-23T03:50:01.559Z,97056.94
2023-04-23T03:52:29.763Z,97064.94
2023-04-23T03:54:58.092Z,97065.16
2023-04-23T03:57:27.828Z,97035.88
2023-04-23T03:59:56.021Z,97061.13
2023-04-23T04:02:24.692Z,97067.19
2023-04-23T04:04:55.123Z,97060.81
2023-04-23T04:07:23.659Z,97056.72
2023-04-23T04:09:51.837Z,97058.16
2023-04-23T04:12:19.969Z,97058.91
2023-04-23T04:14:49.644Z,97063.97
2023-04-23T04:17:17.830Z,97068.25
2023-04-23T04:19:46.388Z,97065.53
2023-04-23T04:22:14.764Z,97068.13
2023-04-23T04:24:43.996Z,97062.38
2023-04-23T04:27:12.428Z,97053.09
2023-04-23T04:29:41.304Z,97061.28
2023-04-23T04:32:11.550Z,97075.44
2023-04-23T04:34:40.492Z,97052.41
2023-04-23T04:37:10.160Z,97071.31
2023-04-23T04:39:38.431Z,97063.28
2023-04-23T04:42:07.466Z,97071.19
2023-04-23T04:44:37.653Z,97053.78
2023-04-23T04:47:07.335Z,97070.13
2023-04-23T04:49:37.269Z,97055.63
2023-04-23T04:52:05.533Z,97069.63
2023-04-23T04:54:33.760Z,97076.03
2023-04-23T04:57:02.488Z,97081.53
2023-04-23T04:59:30.771Z,96995.25
2023-04-23T05:01:59.863Z,97062.09
2023-04-23T05:04:28.220Z,97060.22
2023-04-23T05:06:57.822Z,97081.81
2023-04-23T05:09:26.831Z,97042.72
2023-04-23T05:11:55.066Z,97084.13
2023-04-23T05:14:23.346Z,97066.78
2023-04-23T05:16:51.583Z,97092.47
2023-04-23T05:19:19.854Z,97087.84
2023-04-23T05:21:48.121Z,97058.91
2023-04-23T05:24:17.801Z,97073.03
2023-04-23T05:26:46.003Z,97079.69
2023-04-23T05:29:18.038Z,97070.28
2023-04-23T05:31:46.859Z,97075.34
2023-04-23T05:34:15.123Z,97071.63
2023-04-23T05:36:43.262Z,97058.09
2023-04-23T05:39:11.590Z,97071.63
2023-04-23T05:41:41.291Z,97052.13
2023-04-23T05:44:09.588Z,97063.81
2023-04-23T05:46:38.898Z,97072.03
2023-04-23T05:49:07.259Z,97060.94
2023-04-23T05:51:35.433Z,97065.09
2023-04-23T05:54:03.672Z,97074.25
2023-04-23T05:56:31.882Z,97066.13
2023-04-23T05:59:01.554Z,97076.03
2023-04-23T06:01:30.057Z,97072.56
2023-04-23T06:03:58.847Z,97130.97
2023-04-23T06:06:28.185Z,97075.13
2023-04-23T06:08:57.865Z,97077.41
2023-04-23T06:11:26.241Z,97084.03
2023-04-23T06:13:56.732Z,97075.56
2023-04-23T06:16:26.533Z,97053.97
2023-04-23T06:18:56.352Z,97082.88
2023-04-23T06:21:24.893Z,97086.88
2023-04-23T06:23:53.138Z,97078.91
2023-04-23T06:26:21.416Z,97089.13
2023-04-23T06:28:49.694Z,97084.75
2023-04-23T06:31:18.011Z,97078.44
2023-04-23T06:33:47.620Z,97087.31
2023-04-23T06:36:15.864Z,97097.44
2023-04-23T06:38:44.761Z,97086.63
2023-04-23T06:41:14.068Z,97095.41
2023-04-23T06:43:42.295Z,97088.69
2023-04-23T06:46:10.818Z,97087.16
2023-04-23T06:48:39.005Z,97084.00
2023-04-23T06:51:08.586Z,97063.56
2023-04-23T06:53:36.746Z,97101.72
2023-04-23T06:56:05.054Z,97089.84
2023-04-23T06:58:33.225Z,97060.31
2023-04-23T07:01:04.353Z,97079.31
2023-04-23T07:03:32.896Z,97041.78
2023-04-23T07:06:01.554Z,96984.59
2023-04-23T07:08:31.349Z,97073.16
2023-04-23T07:10:59.835Z,97066.47
2023-04-23T07:13:28.178Z,97046.63
2023-04-23T07:15:56.481Z,97065.72
2023-04-23T07:18:25.302Z,97056.81
2023-04-23T07:20:53.620Z,97059.78
2023-04-23T07:23:22.475Z,97065.75
2023-04-23T07:25:56.331Z,97060.06
2023-04-23T07:28:24.599Z,97027.28
2023-04-23T07:30:52.998Z,97059.91
2023-04-23T07:33:21.761Z,97018.84
2023-04-23T07:35:50.242Z,97064.50
2023-04-23T07:38:18.646Z,97058.53
2023-04-23T07:40:47.707Z,96982.00
2023-04-23T07:43:17.424Z,97006.28
2023-04-23T07:45:45.670Z,97040.03
2023-04-23T07:48:13.940Z,97046.25
2023-04-23T07:50:42.205Z,97043.50
2023-04-23T07:53:10.436Z,97057.59
2023-04-23T07:55:38.614Z,97042.47
2023-04-23T07:58:06.810Z,97047.56
2023-04-23T08:00:37.398Z,97046.94
2023-04-23T08:03:06.314Z,97046.78
2023-04-23T08:05:34.748Z,97017.63
2023-04-23T08:08:02.969Z,97047.19
2023-04-23T08:10:31.149Z,97044.53
2023-04-23T08:12:59.335Z,97033.53
2023-04-23T08:15:27.646Z,97020.97
2023-04-23T08:17:57.234Z,97012.47
2023-04-23T08:20:25.393Z,97040.28
2023-04-23T08:22:54.252Z,97042.41
2023-04-23T08:25:22.485Z,97029.25
2023-04-23T08:27:50.798Z,97042.00
2023-04-23T08:30:19.022Z,97044.06
2023-04-23T08:32:51.003Z,97033.94
2023-04-23T08:35:21.108Z,97047.09
2023-04-23T08:37:49.465Z,97029.50
2023-04-23T08:40:18.139Z,97001.03
2023-04-23T08:42:51.210Z,97026.28
2023-04-23T08:45:20.191Z,97032.47
2023-04-23T08:47:48.438Z,97026.06
2023-04-23T08:50:18.278Z,97010.13
2023-04-23T08:52:54.455Z,97019.13
2023-04-23T08:55:24.248Z,97031.00
2023-04-23T08:57:53.445Z,96950.88
2023-04-23T09:00:24.120Z,97033.13
2023-04-23T09:02:52.693Z,97008.81
2023-04-23T09:05:21.458Z,97019.25
2023-04-23T09:07:51.299Z,97026.38
2023-04-23T09:10:19.717Z,97006.25
2023-04-23T09:12:48.439Z,96971.59
2023-04-23T09:15:17.002Z,97020.25
2023-04-23T09:17:47.351Z,97018.94
2023-04-23T09:20:16.459Z,96998.97
2023-04-23T09:22:47.323Z,97007.88
2023-04-23T09:25:19.774Z,96978.66
2023-04-23T09:27:49.038Z,96914.00
2023-04-23T09:30:18.238Z,97003.31
2023-04-23T09:32:48.123Z,96987.09
2023-04-23T09:35:20.054Z,96973.91
2023-04-23T09:37:50.457Z,96989.13
2023-04-23T09:40:22.178Z,96990.44
2023-04-23T09:42:52.757Z,96957.00
2023-04-23T09:45:22.777Z,96988.41
2023-04-23T09:47:53.188Z,96980.22
2023-04-23T09:50:21.982Z,96939.69
2023-04-23T09:52:57.321Z,96839.91
2023-04-23T09:55:38.909Z,96944.22
2023-04-23T09:58:08.510Z,96976.47
2023-04-23T10:00:38.437Z,96973.38
2023-04-23T10:03:08.952Z,96978.47
2023-04-23T10:05:59.566Z,96948.22
2023-04-23T10:08:29.175Z,96959.66
2023-04-23T10:11:09.983Z,96952.03
2023-04-23T10:13:47.634Z,96957.59
2023-04-23T10:16:22.435Z,96938.84
2023-04-23T10:18:55.570Z,96960.16
2023-04-23T10:21:32.125Z,96947.56
2023-04-23T10:24:07.397Z,96947.56
2023-04-23T10:26:40.346Z,96935.66
2023-04-23T10:29:14.887Z,96939.88
2023-04-23T10:31:44.099Z,96936.66
2023-04-23T10:34:12.684Z,96934.47
2023-04-23T10:36:41.078Z,96876.38
2023-04-23T10:39:10.618Z,96926.16
2023-04-23T10:41:42.463Z,96924.44
2023-04-23T10:44:15.860Z,96926.63
2023-04-23T10:46:53.461Z,96916.00
2023-04-23T10:49:24.524Z,96914.72
2023-04-23T10:52:18.467Z,96914.81
2023-04-23T10:54:51.001Z,96904.69
2023-04-23T10:57:20.737Z,96919.56
2023-04-23T10:59:54.008Z,96918.34
2023-04-23T11:02:24.679Z,96904.78
2023-04-23T11:04:57.705Z,96913.03
2023-04-23T11:07:31.288Z,96908.19
2023-04-23T11:10:01.025Z,96905.19
2023-04-23T11:12:34.383Z,96911.22
2023-04-23T11:15:12.650Z,96907.03
2023-04-23T11:18:06.133Z,96906.47
2023-04-23T11:20:34.637Z,96906.72
2023-04-23T11:23:02.801Z,96908.22
2023-04-23T11:25:31.369Z,96902.13
2023-04-23T11:28:01.519Z,96885.19
2023-04-23T11:30:31.365Z,96888.91
2023-04-23T11:33:01.376Z,96894.78
2023-04-23T11:35:32.462Z,96889.22
2023-04-23T11:38:00.624Z,96884.47
2023-04-23T11:40:31.148Z,96884.56
2023-04-23T11:43:00.893Z,96885.41
2023-04-23T11:45:30.782Z,96871.72
2023-04-23T11:48:01.826Z,96870.41
2023-04-23T11:50:33.314Z,96883.25
2023-04-23T11:53:06.720Z,96849.25
2023-04-23T11:55:34.990Z,96864.81
2023-04-23T11:58:04.796Z,96871.03
2023-04-23T12:00:33.050Z,96867.75
2023-04-23T12:03:02.915Z,96772.41
2023-04-23T12:05:33.115Z,96859.97
2023-04-23T12:08:12.548Z,96867.09
2023-04-23T12:10:45.745Z,96865.75
2023-04-23T12:13:19.657Z,96859.66
2023-04-23T12:15:48.961Z,96830.84
2023-04-23T12:18:17.953Z,96849.84
2023-04-23T12:20:47.205Z,96855.81
2023-04-23T12:23:16.117Z,96845.44
2023-04-23T12:25:44.500Z,96850.84
2023-04-23T12:28:12.761Z,96837.53
2023-04-23T12:30:46.261Z,96836.97
2023-04-23T12:33:15.104Z,96840.69
2023-04-23T12:35:44.420Z,96819.03
2023-04-23T12:38:24.032Z,96806.28
2023-04-23T12:40:52.344Z,96822.16
2023-04-23T12:43:20.595Z,96781.09
2023-04-23T12:45:51.342Z,96816.13
2023-04-23T12:48:19.869Z,96811.75
2023-04-23T12:50:48.689Z,96811.59
2023-04-23T12:53:17.011Z,96801.19
2023-04-23T12:55:46.002Z,96805.66
2023-04-23T12:58:14.442Z,96811.25
2023-04-23T13:00:42.693Z,96796.28
2023-04-23T13:03:14.224Z,96752.66
2023-04-23T13:05:42.679Z,96718.41
2023-04-23T13:08:10.913Z,96777.16
2023-04-23T13:10:39.160Z,96776.09
2023-04-23T13:13:07.361Z,96758.72
2023-04-23T13:15:35.600Z,96767.09
2023-04-23T13:18:03.973Z,96756.81
2023-04-23T13:20:33.607Z,96756.59
2023-04-23T13:23:03.172Z,96753.06
2023-04-23T13:25:31.602Z,96691.56
2023-04-23T13:28:00.809Z,96740.16
2023-04-23T13:30:29.049Z,96740.72
2023-04-23T13:32:59.336Z,96729.94
2023-04-23T13:35:28.079Z,96727.31
2023-04-23T13:37:57.828Z,96712.94
2023-04-23T13:40:26.117Z,96712.41
2023-04-23T13:42:55.122Z,96727.38
2023-04-23T13:45:23.627Z,96707.72
2023-04-23T13:47:51.837Z,96708.88
2023-04-23T13:50:20.154Z,96714.41
2023-04-23T13:52:48.328Z,96694.31
2023-04-23T13:55:18.136Z,96708.78
2023-04-23T13:57:46.473Z,96705.66
2023-04-23T14:00:15.693Z,96705.47
2023-04-23T14:02:44.024Z,96702.28
2023-04-23T14:05:12.246Z,96689.47
2023-04-23T14:07:40.358Z,96697.81
2023-04-23T14:10:09.820Z,96680.19
2023-04-23T14:12:39.993Z,96695.31
2023-04-23T14:15:09.735Z,96601.28
2023-04-23T14:17:39.498Z,96669.06
2023-04-23T14:20:09.418Z,96656.66
2023-04-23T14:22:37.952Z,96677.78
2023-04-23T14:25:10.925Z,96678.00
2023-04-23T14:27:46.334Z,96674.25
2023-04-23T14:30:20.374Z,96662.09
2023-04-23T14:32:50.423Z,96621.09
2023-04-23T14:35:24.543Z,96613.31
2023-04-23T14:37:57.707Z,96667.63
2023-04-23T14:40:26.017Z,96662.59
2023-04-23T14:42:59.307Z,96654.63
2023-04-23T14:45:33.138Z,96657.25
2023-04-23T14:48:04.762Z,96615.84
2023-04-23T14:50:32.964Z,96649.44
2023-04-23T14:53:03.473Z,96618.75
2023-04-23T14:55:34.846Z,96575.38
2023-04-23T14:58:04.394Z,96586.19
2023-04-23T15:00:32.547Z,96629.94
2023-04-23T15:03:02.870Z,96628.94
2023-04-23T15:05:31.331Z,96628.97
2023-04-23T15:07:59.501Z,96622.38
2023-04-23T15:10:27.745Z,96626.44
2023-04-23T15:13:03.478Z,96628.66
2023-04-23T15:15:45.212Z,96581.81
2023-04-23T15:18:14.898Z,96639.69
2023-04-23T15:20:43.171Z,96623.66
2023-04-23T15:23:12.025Z,96635.16
2023-04-23T15:25:40.785Z,96622.22
2023-04-23T15:28:09.237Z,96628.53
2023-04-23T15:33:08.159Z,96628.53
2023-04-23T15:35:36.366Z,96611.34
2023-04-23T15:38:04.605Z,96614.00
2023-04-23T15:40:33.450Z,96628.31
2023-04-23T15:43:01.620Z,96625.34
2023-04-23T15:45:29.896Z,96630.19
2023-04-23T15:47:59.513Z,96604.56
2023-04-23T15:50:27.726Z,96621.75
2023-04-23T15:52:58.394Z,96625.41
2023-04-23T15:55:26.887Z,96569.25
2023-04-23T15:57:55.072Z,96618.78
2023-04-23T16:00:23.235Z,96595.19
2023-04-23T16:02:51.701Z,96609.38
2023-04-23T16:05:23.489Z,96608.09
2023-04-23T16:07:51.760Z,96596.44
2023-04-23T16:10:20.205Z,96607.53
2023-04-23T16:12:48.924Z,96580.41
2023-04-23T16:15:17.126Z,96601.50
2023-04-23T16:17:45.464Z,96590.38
2023-04-23T16:20:14.006Z,96587.72
2023-04-23T16:22:44.749Z,96531.53
2023-04-23T16:25:13.063Z,96586.00
2023-04-23T16:27:41.381Z,96574.16
2023-04-23T16:30:10.830Z,96570.88
2023-04-23T16:32:39.588Z,96572.97
2023-04-23T16:35:08.496Z,96563.84
2023-04-23T16:37:36.680Z,96535.81
2023-04-23T16:40:07.625Z,96549.78
2023-04-23T16:42:35.805Z,96542.34
2023-04-23T16:45:04.022Z,96569.63
2023-04-23T16:47:32.370Z,96555.19
2023-04-23T16:50:02.776Z,96586.63
2023-04-23T16:52:31.165Z,96657.81
2023-04-23T16:54:59.415Z,96650.69
2023-04-23T16:57:29.403Z,96614.41
2023-04-23T16:59:58.008Z,96656.03
2023-04-23T17:02:26.417Z,96667.97
2023-04-23T17:04:55.277Z,96669.25
2023-04-23T17:07:23.946Z,96591.94
2023-04-23T17:09:52.218Z,96683.69
2023-04-23T17:12:20.494Z,96681.13
2023-04-23T17:14:50.148Z,96684.97
2023-04-23T17:17:18.421Z,96684.16
2023-04-23T17:19:46.919Z,96689.84
2023-04-23T17:22:15.122Z,96692.69
2023-04-23T17:24:43.665Z,96690.91
2023-04-23T17:27:12.149Z,96697.81
2023-04-23T17:29:40.408Z,96691.28
2023-04-23T17:32:10.066Z,96690.22
2023-04-23T17:34:38.454Z,96665.63
2023-04-23T17:37:06.690Z,96659.50
2023-04-23T17:39:34.914Z,96649.53
2023-04-23T17:42:03.230Z,96649.81
2023-04-23T17:44:31.726Z,96639.63
2023-04-23T17:46:59.942Z,96661.31
2023-04-23T17:49:29.805Z,96668.00
2023-04-23T17:51:58.163Z,96668.00
2023-04-23T17:54:56.900Z,96674.50
2023-04-23T17:57:25.191Z,96669.22
2023-04-23T17:59:53.433Z,96682.88
2023-04-23T18:02:21.987Z,96679.22
2023-04-23T18:04:51.766Z,96678.66
2023-04-23T18:07:20.466Z,96667.34
2023-04-23T18:09:49.035Z,96674.69
2023-04-23T18:12:17.532Z,96682.13
2023-04-23T18:14:45.811Z,96681.97
2023-04-23T18:17:17.534Z,96684.19
2023-04-23T18:19:45.830Z,96671.50
2023-04-23T18:22:15.927Z,96693.09
2023-04-23T18:24:44.483Z,96689.69
2023-04-23T18:27:12.763Z,96695.34
2023-04-23T18:29:41.865Z,96701.41
2023-04-23T18:32:12.336Z,96705.16
2023-04-23T18:34:44.399Z,96690.81
2023-04-23T18:37:33.120Z,96686.56
2023-04-23T18:40:01.770Z,96711.63
2023-04-23T18:42:30.129Z,96718.06
2023-04-23T18:44:58.397Z,96706.94
2023-04-23T18:47:32.334Z,96719.66
2023-04-23T18:50:03.451Z,96716.13
2023-04-23T18:52:33.132Z,96719.13
2023-04-23T18:55:01.421Z,96720.44
2023-04-23T18:57:29.708Z,96707.72
2023-04-23T18:59:58.020Z,96704.69
2023-04-23T19:02:35.076Z,96709.34
2023-04-23T19:05:04.573Z,96687.09
2023-04-23T19:07:37.250Z,96696.75
2023-04-23T19:10:06.128Z,96680.66
2023-04-23T19:12:34.307Z,96710.78
2023-04-23T19:15:02.704Z,96615.78
2023-04-23T19:17:31.022Z,96709.84
2023-04-23T19:19:59.233Z,96667.56
2023-04-23T19:22:27.462Z,96702.28
2023-04-23T19:25:16.354Z,96687.66
2023-04-23T19:27:44.893Z,96710.28
2023-04-23T19:30:14.020Z,96702.97
2023-04-23T19:32:42.488Z,96699.44
2023-04-23T19:35:11.992Z,96681.34
2023-04-23T19:37:40.246Z,96691.88
2023-04-23T19:40:11.038Z,96699.03
2023-04-23T19:42:39.729Z,96671.34
2023-04-23T19:45:08.985Z,96691.34
2023-04-23T19:47:40.283Z,96693.88
2023-04-23T19:50:09.889Z,96706.16
2023-04-23T19:52:38.280Z,96703.28
2023-04-23T19:55:08.131Z,96660.09
2023-04-23T19:57:37.917Z,96691.16
2023-04-23T20:00:07.861Z,96726.44
2023-04-23T20:02:36.926Z,96693.72
2023-04-23T20:05:06.037Z,96712.22
2023-04-23T20:07:34.955Z,96717.56
2023-04-23T20:10:03.870Z,96720.28
2023-04-23T20:12:33.484Z,96695.84
2023-04-23T20:15:03.300Z,96709.19
2023-04-23T20:17:31.758Z,96697.53
2023-04-23T20:20:02.122Z,96706.53
2023-04-23T20:22:30.968Z,96684.03
2023-04-23T20:24:59.290Z,96700.25
2023-04-23T20:27:28.088Z,96696.81
2023-04-23T20:29:56.492Z,96688.16
2023-04-23T20:32:26.075Z,96697.00
2023-04-23T20:34:54.523Z,96680.19
2023-04-23T20:37:22.902Z,96686.41
2023-04-23T20:39:51.252Z,96687.00
2023-04-23T20:42:19.603Z,96667.22
2023-04-23T20:44:49.079Z,96697.84
2023-04-23T20:47:17.992Z,96684.44
2023-04-23T20:49:47.621Z,96678.16
2023-04-23T20:52:16.575Z,96572.09
2023-04-23T20:54:44.944Z,96691.47
2023-04-23T20:57:13.271Z,96685.03
2023-04-23T20:59:41.879Z,96682.50
2023-04-23T21:02:13.049Z,96686.63
2023-04-23T21:04:41.455Z,96636.03
2023-04-23T21:07:11.227Z,96689.56
2023-04-23T21:09:39.387Z,96693.97
2023-04-23T21:12:07.777Z,96659.81
2023-04-23T21:14:36.354Z,96672.41
2023-04-23T21:17:04.570Z,96654.56
2023-04-23T21:19:32.716Z,96656.28
2023-04-23T21:22:00.954Z,96655.81
2023-04-23T21:24:30.579Z,96549.06
2023-04-23T21:26:58.825Z,96658.66
2023-04-23T21:29:27.235Z,96640.50
2023-04-23T21:31:55.683Z,96640.03
2023-04-23T21:34:24.116Z,96646.00
2023-04-23T21:36:52.386Z,96640.63
2023-04-23T21:39:20.552Z,96633.84
2023-04-23T21:41:50.336Z,96625.31
2023-04-23T21:44:18.510Z,96627.41
2023-04-23T21:46:46.860Z,96622.25
2023-04-23T21:49:15.116Z,96635.25
2023-04-23T21:51:43.432Z,96628.97
2023-04-23T21:54:11.625Z,96629.81
2023-04-23T21:56:40.023Z,96627.44
2023-04-23T21:59:09.739Z,96632.31
2023-04-23T22:01:38.036Z,96621.53
2023-04-23T22:04:06.465Z,96621.03
2023-04-23T22:06:35.301Z,96614.03
2023-04-23T22:09:03.763Z,96614.31
2023-04-23T22:11:32.013Z,96589.50
2023-04-23T22:14:00.615Z,96618.13
2023-04-23T22:16:30.430Z,96585.31
2023-04-23T22:18:58.733Z,96608.63
2023-04-23T22:21:26.975Z,96611.34
2023-04-23T22:23:55.256Z,96620.00
2023-04-23T22:26:23.390Z,96610.78
2023-04-23T22:28:51.598Z,96610.75
2023-04-23T22:31:19.825Z,96597.22
2023-04-23T22:33:49.442Z,96613.50
2023-04-23T22:36:18.144Z,96608.75
2023-04-23T22:38:46.610Z,96398.56
2023-04-23T22:41:14.788Z,96607.59
2023-04-23T22:43:42.902Z,96578.13
2023-04-23T22:46:11.229Z,96598.47
2023-04-23T22:48:45.132Z,96592.06
2023-04-23T22:51:15.611Z,96588.22
2023-04-23T22:53:43.771Z,96595.84
2023-04-23T22:56:12.037Z,96592.59
2023-04-23T22:58:40.521Z,96594.63
2023-04-23T23:01:08.704Z,96586.44
2023-04-23T23:03:37.026Z,96589.50
2023-04-23T23:06:05.693Z,96589.38
2023-04-23T23:08:35.344Z,96574.81
2023-04-23T23:11:03.539Z,96559.09
2023-04-23T23:13:32.350Z,96557.84
2023-04-23T23:16:04.753Z,96564.13
2023-04-23T23:18:32.972Z,96565.06
2023-04-23T23:21:01.218Z,96566.47
2023-04-23T23:23:29.358Z,96560.38
2023-04-23T23:26:00.040Z,96533.91
2023-04-23T23:28:28.591Z,96560.97
2023-04-23T23:30:57.959Z,96534.50
2023-04-23T23:33:27.365Z,96547.53
2023-04-23T23:35:55.810Z,96548.44
2023-04-23T23:38:24.058Z,96537.97
2023-04-23T23:40:52.249Z,96547.91
2023-04-23T23:43:21.776Z,96546.91
2023-04-23T23:45:50.083Z,96537.41
2023-04-23T23:48:18.723Z,96539.25
2023-04-23T23:50:47.095Z,96538.63
2023-04-23T23:53:15.192Z,96201.19
2023-04-23T23:55:43.387Z,96537.84
2023-04-23T23:58:11.743Z,96538.06
